Time;durP1;ratioP1;P1;durP2;ratioP2;P2;SDS_P1;SDS_P2;PMS_P1;PMS_P2;Temp;Humidity;BMP_temperature;BMP_pressure;BME280_temperature;BME280_humidity;BME280_pressure;Samples;Min_cycle;Max_cycle;Signal;HPM_P1;HPM_P2
2024/02/17 00:00:20;;;;;;;4.45;2.90;;;12.60;99.90;;;;;;4967477;28;20153;-61
2024/02/17 00:02:47;;;;;;;10.07;2.80;;;12.60;99.90;;;;;;4967776;28;20078;-61
2024/02/17 00:05:13;;;;;;;3.63;2.67;;;12.60;99.90;;;;;;4968343;28;20074;-62
2024/02/17 00:07:40;;;;;;;8.35;3.17;;;12.60;99.90;;;;;;4965294;28;20073;-61
2024/02/17 00:10:07;;;;;;;7.03;3.03;;;12.60;99.90;;;;;;4966193;28;20086;-61
2024/02/17 00:12:34;;;;;;;5.60;3.05;;;12.60;99.90;;;;;;4958130;28;20043;-61
2024/02/17 00:15:02;;;;;;;5.05;3.38;;;12.60;99.90;;;;;;4965132;28;20055;-61
2024/02/17 00:17:29;;;;;;;5.60;2.80;;;12.60;99.90;;;;;;4966368;28;20137;-61
2024/02/17 00:19:55;;;;;;;8.45;2.83;;;12.70;99.90;;;;;;4972704;28;20051;-62
2024/02/17 00:22:22;;;;;;;4.93;2.63;;;12.70;99.90;;;;;;4970031;28;20069;-59
2024/02/17 00:24:49;;;;;;;7.32;2.70;;;12.70;99.90;;;;;;4968023;28;20105;-61
2024/02/17 00:27:16;;;;;;;6.38;3.00;;;12.70;99.90;;;;;;4976292;28;20061;-61
2024/02/17 00:29:43;;;;;;;7.75;2.83;;;12.70;99.90;;;;;;4967366;28;20122;-61
2024/02/17 00:32:09;;;;;;;6.57;3.03;;;12.70;99.90;;;;;;4972969;28;20118;-61
2024/02/17 00:34:36;;;;;;;7.43;3.60;;;12.60;99.90;;;;;;4971200;28;20094;-61
2024/02/17 00:37:03;;;;;;;9.15;2.95;;;12.70;99.90;;;;;;4975604;28;20074;-61
2024/02/17 00:39:30;;;;;;;11.55;3.65;;;12.70;99.90;;;;;;4969119;28;20123;-61
2024/02/17 00:41:57;;;;;;;6.72;3.17;;;12.60;99.90;;;;;;4972089;28;20423;-62
2024/02/17 00:44:24;;;;;;;6.15;2.83;;;12.60;99.90;;;;;;4971640;28;20109;-61
2024/02/17 00:46:51;;;;;;;5.97;2.97;;;12.60;99.90;;;;;;4954381;28;20157;-61
2024/02/17 00:49:18;;;;;;;5.60;2.95;;;12.60;99.90;;;;;;4971372;28;20051;-61
2024/02/17 00:51:45;;;;;;;5.93;3.33;;;12.60;99.90;;;;;;4974742;28;20046;-61
2024/02/17 00:54:12;;;;;;;8.00;3.40;;;12.60;99.90;;;;;;4975239;28;20144;-62
2024/02/17 00:56:39;;;;;;;6.70;2.80;;;12.60;99.90;;;;;;4972660;28;20058;-62
2024/02/17 00:59:06;;;;;;;4.68;2.72;;;12.60;99.90;;;;;;4970228;28;20046;-61
2024/02/17 01:01:33;;;;;;;4.78;2.78;;;12.50;99.90;;;;;;4970284;28;20078;-62
2024/02/17 01:04:06;;;;;;;5.07;3.20;;;12.60;99.90;;;;;;4975092;28;20073;-60
2024/02/17 01:06:33;;;;;;;6.35;3.22;;;12.60;99.90;;;;;;4969972;28;20138;-62
2024/02/17 01:09:00;;;;;;;5.30;3.00;;;12.50;99.90;;;;;;4974425;28;20051;-61
2024/02/17 01:11:27;;;;;;;4.55;3.45;;;12.50;99.90;;;;;;4971585;28;20043;-61
2024/02/17 01:13:54;;;;;;;7.80;3.53;;;12.50;99.90;;;;;;4971752;28;20094;-61
2024/02/17 01:16:21;;;;;;;7.43;3.67;;;12.50;99.90;;;;;;4975029;28;20566;-62
2024/02/17 01:18:48;;;;;;;4.95;3.70;;;12.50;99.90;;;;;;4976263;28;20432;-60
2024/02/17 01:21:15;;;;;;;8.35;4.50;;;12.50;99.90;;;;;;4969941;28;20047;-62
2024/02/17 01:23:42;;;;;;;6.13;3.95;;;12.50;99.90;;;;;;4972519;28;20483;-62
2024/02/17 01:26:09;;;;;;;7.50;4.10;;;12.50;99.90;;;;;;4975572;28;20050;-62
2024/02/17 01:28:35;;;;;;;6.05;4.07;;;12.50;99.90;;;;;;4973898;28;20085;-62
2024/02/17 01:31:02;;;;;;;9.27;3.95;;;12.50;99.90;;;;;;4971159;28;20086;-62
2024/02/17 01:33:29;;;;;;;6.90;4.15;;;12.50;99.90;;;;;;4965458;28;20059;-60
2024/02/17 01:35:55;;;;;;;6.68;3.53;;;12.50;99.90;;;;;;4966555;28;20050;-62
2024/02/17 01:38:22;;;;;;;6.07;3.80;;;12.50;99.90;;;;;;4964383;28;20051;-62
2024/02/17 01:40:49;;;;;;;9.55;3.92;;;12.50;99.90;;;;;;4969463;28;20137;-61
2024/02/17 01:43:16;;;;;;;7.13;3.35;;;12.50;99.90;;;;;;4967386;28;20053;-61
2024/02/17 01:45:45;;;;;;;5.50;3.65;;;12.50;99.90;;;;;;4967195;28;20054;-61
2024/02/17 01:48:13;;;;;;;5.20;3.80;;;12.50;99.90;;;;;;4967288;28;20196;-61
2024/02/17 01:50:41;;;;;;;8.45;3.83;;;12.50;99.90;;;;;;4967685;28;20051;-62
2024/02/17 01:53:08;;;;;;;7.50;4.03;;;12.50;99.90;;;;;;4968301;28;20086;-61
2024/02/17 01:55:35;;;;;;;5.47;3.78;;;12.50;99.90;;;;;;4970707;28;20083;-62
2024/02/17 01:58:02;;;;;;;7.60;4.32;;;12.50;99.90;;;;;;4970187;28;20510;-62
2024/02/17 02:00:29;;;;;;;6.43;3.95;;;12.50;99.90;;;;;;4965524;28;20200;-62
2024/02/17 02:02:56;;;;;;;8.30;4.10;;;12.50;99.90;;;;;;4965920;28;20480;-61
2024/02/17 02:05:23;;;;;;;7.38;4.63;;;12.50;99.90;;;;;;4967735;28;20467;-61
2024/02/17 02:07:50;;;;;;;9.88;5.28;;;12.50;99.90;;;;;;4968997;28;20043;-61
2024/02/17 02:10:17;;;;;;;8.07;4.20;;;12.40;99.90;;;;;;4967031;28;20062;-61
2024/02/17 02:12:44;;;;;;;9.55;5.63;;;12.40;99.90;;;;;;4971377;28;20039;-62
2024/02/17 02:15:12;;;;;;;9.35;5.18;;;12.40;99.90;;;;;;4970194;28;20692;-62
2024/02/17 02:17:40;;;;;;;10.50;5.30;;;12.30;99.90;;;;;;4968789;28;20538;-61
2024/02/17 02:20:11;;;;;;;9.13;5.00;;;12.30;99.90;;;;;;4967294;28;20436;-61
2024/02/17 02:22:38;;;;;;;8.48;5.32;;;12.30;99.90;;;;;;4967014;28;20042;-61
2024/02/17 02:25:06;;;;;;;8.60;5.50;;;12.20;99.90;;;;;;4968771;28;20057;-60
2024/02/17 02:27:40;;;;;;;9.30;5.65;;;12.20;99.90;;;;;;4968539;28;20047;-62
2024/02/17 02:30:08;;;;;;;10.15;5.75;;;12.20;99.90;;;;;;4968740;28;20553;-60
2024/02/17 02:32:35;;;;;;;8.02;5.50;;;12.10;99.90;;;;;;4968633;28;20058;-61
2024/02/17 02:35:02;;;;;;;7.95;5.07;;;12.20;99.90;;;;;;4969973;28;20073;-59
2024/02/17 02:37:30;;;;;;;9.30;5.95;;;12.10;99.90;;;;;;4966146;28;20050;-61
2024/02/17 02:39:56;;;;;;;8.73;5.60;;;12.10;99.90;;;;;;4963877;28;20125;-61
2024/02/17 02:42:23;;;;;;;10.50;5.45;;;12.10;99.90;;;;;;4970662;28;20050;-61
2024/02/17 02:44:50;;;;;;;8.98;5.10;;;12.10;99.90;;;;;;4964974;28;20054;-61
2024/02/17 02:47:18;;;;;;;9.10;5.97;;;12.10;99.90;;;;;;4968142;28;20082;-61
2024/02/17 02:49:45;;;;;;;9.48;6.05;;;12.10;99.90;;;;;;4967980;28;20065;-61
2024/02/17 02:52:13;;;;;;;8.55;5.65;;;12.10;99.90;;;;;;4967527;28;20059;-61
2024/02/17 02:54:40;;;;;;;9.43;6.35;;;12.10;99.90;;;;;;4967066;28;20046;-61
2024/02/17 02:57:07;;;;;;;11.02;6.35;;;12.10;99.90;;;;;;4969188;28;20137;-62
2024/02/17 02:59:34;;;;;;;9.13;6.43;;;12.10;99.90;;;;;;4968432;28;20047;-61
2024/02/17 03:02:03;;;;;;;10.10;6.35;;;12.10;99.90;;;;;;4969281;28;20084;-62
2024/02/17 03:04:30;;;;;;;9.20;6.43;;;12.10;99.90;;;;;;4968283;28;20152;-62
2024/02/17 03:06:57;;;;;;;9.10;5.80;;;12.10;99.90;;;;;;4967611;28;20051;-60
2024/02/17 03:09:24;;;;;;;10.38;6.28;;;12.10;99.90;;;;;;4968582;28;20047;-62
2024/02/17 03:11:51;;;;;;;7.80;5.90;;;12.10;99.90;;;;;;4970476;28;20051;-62
2024/02/17 03:14:18;;;;;;;9.48;6.15;;;12.10;99.90;;;;;;4967432;28;20698;-62
2024/02/17 03:16:45;;;;;;;9.95;5.15;;;12.20;99.90;;;;;;4967569;28;20137;-61
2024/02/17 03:19:12;;;;;;;7.80;5.65;;;12.10;99.90;;;;;;4966568;28;20050;-62
2024/02/17 03:21:40;;;;;;;9.68;5.30;;;12.10;99.90;;;;;;4966659;28;20138;-61
2024/02/17 03:24:07;;;;;;;10.18;5.00;;;12.10;99.90;;;;;;4967491;28;20303;-62
2024/02/17 03:26:36;;;;;;;6.30;4.53;;;12.10;99.90;;;;;;4966969;28;20594;-61
2024/02/17 03:29:03;;;;;;;9.60;4.75;;;12.10;99.90;;;;;;4967587;28;20046;-61
2024/02/17 03:31:30;;;;;;;7.43;4.70;;;12.00;99.90;;;;;;4968116;28;20472;-61
2024/02/17 03:33:59;;;;;;;7.57;4.60;;;12.10;99.90;;;;;;4967904;28;20046;-62
2024/02/17 03:36:26;;;;;;;9.05;5.20;;;12.10;99.90;;;;;;4965615;28;20134;-62
2024/02/17 03:38:53;;;;;;;6.63;5.32;;;12.00;99.90;;;;;;4968142;28;20057;-61
2024/02/17 03:41:19;;;;;;;6.75;5.18;;;12.10;99.90;;;;;;4970115;28;20812;-61
2024/02/17 03:43:46;;;;;;;9.85;6.30;;;12.00;99.90;;;;;;4971366;28;20046;-62
2024/02/17 03:46:13;;;;;;;6.93;5.10;;;12.10;99.90;;;;;;4970213;28;20109;-62
2024/02/17 03:48:40;;;;;;;8.10;5.13;;;12.10;99.90;;;;;;4969128;28;20072;-62
2024/02/17 03:51:07;;;;;;;8.48;5.97;;;12.10;99.90;;;;;;4970084;28;20057;-62
2024/02/17 03:53:35;;;;;;;10.75;5.20;;;12.10;99.90;;;;;;4966607;28;20047;-62
2024/02/17 03:56:03;;;;;;;9.30;6.28;;;12.10;99.90;;;;;;4966827;28;20420;-62
2024/02/17 03:58:30;;;;;;;7.90;6.03;;;12.10;99.90;;;;;;4966513;28;20050;-64
2024/02/17 04:00:57;;;;;;;10.85;6.30;;;12.00;99.90;;;;;;4963648;28;20106;-61
2024/02/17 04:03:24;;;;;;;11.77;6.78;;;12.00;99.90;;;;;;4966676;28;20042;-61
2024/02/17 04:05:51;;;;;;;8.27;5.97;;;12.10;99.90;;;;;;4966704;28;20074;-62
2024/02/17 04:08:18;;;;;;;10.95;6.00;;;12.10;99.90;;;;;;4964038;28;20078;-62
2024/02/17 04:10:45;;;;;;;8.25;5.80;;;12.10;99.90;;;;;;4966032;28;20061;-62
2024/02/17 04:13:12;;;;;;;13.02;6.40;;;12.00;99.90;;;;;;4966106;28;20047;-62
2024/02/17 04:15:38;;;;;;;12.80;7.82;;;12.00;99.90;;;;;;4963866;28;20138;-62
2024/02/17 04:18:09;;;;;;;9.65;7.72;;;12.00;99.90;;;;;;4963320;28;20133;-62
2024/02/17 04:20:37;;;;;;;9.20;6.15;;;12.00;99.90;;;;;;4947728;28;20069;-62
2024/02/17 04:23:06;;;;;;;8.82;6.22;;;12.00;99.90;;;;;;4965991;28;20095;-62
2024/02/17 04:25:33;;;;;;;10.25;6.05;;;11.90;99.90;;;;;;4965586;28;20043;-62
2024/02/17 04:28:02;;;;;;;9.02;5.88;;;11.90;99.90;;;;;;4966806;28;20050;-62
2024/02/17 04:30:29;;;;;;;8.40;6.57;;;11.90;99.90;;;;;;4966268;28;20551;-62
2024/02/17 04:32:56;;;;;;;11.93;7.05;;;11.90;99.90;;;;;;4966068;28;20051;-61
2024/02/17 04:35:23;;;;;;;9.98;6.65;;;11.90;99.90;;;;;;4966388;28;20046;-62
2024/02/17 04:37:51;;;;;;;10.68;6.75;;;11.90;99.90;;;;;;4965712;28;20053;-61
2024/02/17 04:40:18;;;;;;;11.18;8.20;;;11.90;99.90;;;;;;4966388;28;20122;-61
2024/02/17 04:42:45;;;;;;;8.98;6.78;;;12.00;99.90;;;;;;4966466;28;20043;-62
2024/02/17 04:45:12;;;;;;;8.07;6.80;;;12.00;99.90;;;;;;4967568;28;20138;-61
2024/02/17 04:47:39;;;;;;;12.20;7.70;;;12.00;99.90;;;;;;4966007;28;21098;-61
2024/02/17 04:50:05;;;;;;;12.20;7.82;;;12.10;99.90;;;;;;4965231;28;20059;-62
2024/02/17 04:52:32;;;;;;;9.40;7.75;;;12.10;99.90;;;;;;4966894;28;20456;-62
2024/02/17 04:54:59;;;;;;;9.80;7.70;;;12.10;99.90;;;;;;4967090;28;20039;-61
2024/02/17 04:57:25;;;;;;;11.50;8.25;;;12.10;99.90;;;;;;4967430;28;20074;-62
2024/02/17 04:59:52;;;;;;;13.30;8.90;;;12.10;99.90;;;;;;4965768;28;20114;-62
2024/02/17 05:02:19;;;;;;;12.57;9.35;;;12.10;99.90;;;;;;4967149;28;20062;-62
2024/02/17 05:04:47;;;;;;;17.15;9.50;;;11.90;99.90;;;;;;4967369;28;20415;-62
2024/02/17 05:07:14;;;;;;;12.05;9.13;;;12.00;99.90;;;;;;4971810;28;20058;-62
2024/02/17 05:09:40;;;;;;;9.15;6.18;;;12.00;99.90;;;;;;4973727;28;20078;-62
2024/02/17 05:12:07;;;;;;;4.07;3.20;;;11.70;99.90;;;;;;4971034;28;20130;-62
2024/02/17 05:14:36;;;;;;;4.93;3.10;;;11.20;99.90;;;;;;4970018;28;20043;-62
2024/02/17 05:17:04;;;;;;;4.20;3.05;;;10.70;99.90;;;;;;4966909;28;20115;-60
2024/02/17 05:19:32;;;;;;;6.13;3.15;;;10.40;99.90;;;;;;4967973;28;20051;-62
2024/02/17 05:21:58;;;;;;;4.30;3.70;;;10.20;99.90;;;;;;4969706;28;20047;-62
2024/02/17 05:24:25;;;;;;;6.15;3.65;;;10.20;99.90;;;;;;4967846;28;20483;-62
2024/02/17 05:26:52;;;;;;;7.57;4.13;;;10.00;99.90;;;;;;4971397;28;20086;-60
2024/02/17 05:29:19;;;;;;;4.85;3.67;;;10.00;99.90;;;;;;4969424;28;20054;-62
2024/02/17 05:31:46;;;;;;;10.38;3.90;;;9.90;99.90;;;;;;4968710;28;20043;-62
2024/02/17 05:34:13;;;;;;;7.47;4.45;;;9.90;99.90;;;;;;4967207;28;20083;-62
2024/02/17 05:36:39;;;;;;;9.20;5.18;;;9.80;99.90;;;;;;4969456;28;20065;-62
2024/02/17 05:39:07;;;;;;;7.32;4.20;;;9.80;99.90;;;;;;4965916;28;20054;-62
2024/02/17 05:41:34;;;;;;;7.95;4.97;;;9.80;99.90;;;;;;4967128;28;20066;-62
2024/02/17 05:44:01;;;;;;;7.25;4.40;;;9.80;99.90;;;;;;4967027;28;20098;-62
2024/02/17 05:46:28;;;;;;;8.38;4.32;;;9.80;99.90;;;;;;4966979;28;20129;-62
2024/02/17 05:48:54;;;;;;;7.55;4.70;;;9.80;99.90;;;;;;4963306;28;20602;-62
2024/02/17 05:51:21;;;;;;;10.40;5.00;;;9.80;99.90;;;;;;4970107;28;20422;-62
2024/02/17 05:53:48;;;;;;;7.80;4.45;;;9.80;99.90;;;;;;4964437;28;20051;-67
2024/02/17 05:56:16;;;;;;;10.10;4.35;;;9.70;99.90;;;;;;4966445;28;20047;-62
2024/02/17 05:58:44;;;;;;;7.43;5.13;;;9.70;99.90;;;;;;4965980;28;20047;-62
2024/02/17 06:01:11;;;;;;;11.65;5.75;;;9.80;99.90;;;;;;4969422;28;20055;-62
2024/02/17 06:03:37;;;;;;;11.00;5.75;;;9.90;99.90;;;;;;4951850;28;20134;-62
2024/02/17 06:06:05;;;;;;;8.13;5.78;;;9.90;99.90;;;;;;4971845;28;20054;-62
2024/02/17 06:08:32;;;;;;;7.70;5.28;;;9.90;99.90;;;;;;4969667;28;20090;-63
2024/02/17 06:11:00;;;;;;;8.63;4.70;;;9.90;99.90;;;;;;4973496;28;20043;-63
2024/02/17 06:13:28;;;;;;;7.22;4.50;;;9.80;99.90;;;;;;4963714;28;20042;-62
2024/02/17 06:15:55;;;;;;;5.55;4.07;;;9.90;99.90;;;;;;4961109;28;20054;-62
2024/02/17 06:21:11;;;;;;;6.15;3.78;;;10.00;99.90;;;;;;4969989;28;20061;-63
2024/02/17 06:23:38;;;;;;;6.10;4.38;;;10.00;99.90;;;;;;4965201;28;20059;-63
2024/02/17 06:26:05;;;;;;;10.57;4.53;;;10.00;99.90;;;;;;4967731;28;20103;-62
2024/02/17 06:28:32;;;;;;;7.75;5.10;;;9.90;99.90;;;;;;4966978;28;20047;-63
2024/02/17 06:30:59;;;;;;;9.32;5.53;;;9.90;99.90;;;;;;4967042;28;20046;-63
2024/02/17 06:33:31;;;;;;;11.55;6.75;;;9.90;99.90;;;;;;4951650;28;20051;-63
2024/02/17 06:35:58;;;;;;;13.13;6.78;;;9.90;99.90;;;;;;4969465;28;20047;-63
2024/02/17 06:38:24;;;;;;;12.27;6.97;;;9.90;99.90;;;;;;4969432;28;20051;-63
2024/02/17 06:40:51;;;;;;;12.32;7.93;;;10.00;99.90;;;;;;4967065;28;20503;-63
2024/02/17 06:43:18;;;;;;;15.52;9.23;;;10.00;99.90;;;;;;4965956;28;20066;-63
2024/02/17 06:45:45;;;;;;;17.30;10.77;;;10.00;99.90;;;;;;4967794;28;20828;-63
2024/02/17 06:48:12;;;;;;;17.45;10.68;;;10.00;99.90;;;;;;4967352;28;20053;-62
2024/02/17 06:50:39;;;;;;;14.68;10.25;;;10.00;99.90;;;;;;4967102;28;20043;-63
2024/02/17 06:53:05;;;;;;;19.77;11.23;;;10.00;99.90;;;;;;4965309;28;20453;-63
2024/02/17 06:55:32;;;;;;;18.80;12.07;;;10.00;99.90;;;;;;4967151;28;20051;-63
2024/02/17 06:57:59;;;;;;;19.95;12.20;;;10.00;99.90;;;;;;4967091;28;20067;-63
2024/02/17 07:00:27;;;;;;;22.65;12.43;;;10.10;99.90;;;;;;4967031;28;20054;-63
2024/02/17 07:02:54;;;;;;;24.38;13.57;;;10.10;99.90;;;;;;4969041;28;20081;-63
2024/02/17 07:05:21;;;;;;;23.08;13.32;;;10.10;99.90;;;;;;4964449;28;20519;-63
2024/02/17 07:07:48;;;;;;;25.20;14.07;;;10.10;99.90;;;;;;4967170;28;20636;-63
2024/02/17 07:10:15;;;;;;;26.52;15.38;;;10.10;99.90;;;;;;4972011;28;20105;-62
2024/02/17 07:12:41;;;;;;;25.90;13.77;;;10.20;99.90;;;;;;4964848;28;20050;-63
2024/02/17 07:15:09;;;;;;;26.45;15.25;;;10.10;99.90;;;;;;4947662;28;20057;-63
2024/02/17 07:17:35;;;;;;;27.90;16.02;;;10.10;99.90;;;;;;4966873;28;20466;-62
2024/02/17 07:20:04;;;;;;;27.83;14.57;;;10.10;99.90;;;;;;4962713;28;20514;-63
2024/02/17 07:22:31;;;;;;;27.63;16.17;;;10.10;99.90;;;;;;4966923;28;20153;-63
2024/02/17 07:24:57;;;;;;;29.58;17.58;;;10.10;99.90;;;;;;4965810;28;20063;-63
2024/02/17 07:27:25;;;;;;;34.75;19.00;;;10.10;99.90;;;;;;4964265;28;20094;-62
2024/02/17 07:29:52;;;;;;;40.20;23.02;;;10.10;99.90;;;;;;4963343;28;20434;-62
2024/02/17 07:32:20;;;;;;;33.38;18.85;;;10.00;99.90;;;;;;4965464;28;20122;-63
2024/02/17 07:34:47;;;;;;;34.42;18.33;;;10.00;99.90;;;;;;4972692;28;20105;-63
2024/02/17 07:37:14;;;;;;;41.50;22.75;;;9.90;99.90;;;;;;4960932;28;20675;-63
2024/02/17 07:39:41;;;;;;;42.63;20.63;;;10.00;99.90;;;;;;4959772;28;20431;-63
2024/02/17 07:42:08;;;;;;;37.08;20.77;;;9.90;99.90;;;;;;4964170;28;20073;-63
2024/02/17 07:44:36;;;;;;;44.38;21.25;;;9.90;99.90;;;;;;4966321;28;20058;-63
2024/02/17 07:47:06;;;;;;;47.10;22.58;;;9.90;99.90;;;;;;4963060;28;20054;-63
2024/02/17 07:49:33;;;;;;;40.53;21.42;;;9.80;99.90;;;;;;4960781;28;20049;-63
2024/02/17 07:52:00;;;;;;;42.10;21.23;;;9.70;99.90;;;;;;4963953;28;20091;-63
2024/02/17 07:54:27;;;;;;;43.65;22.13;;;9.70;99.90;;;;;;4964025;28;20055;-63
2024/02/17 07:56:54;;;;;;;44.47;23.45;;;9.70;99.90;;;;;;4963742;28;20057;-63
2024/02/17 07:59:20;;;;;;;40.92;22.15;;;9.70;99.90;;;;;;4962191;28;20130;-63
2024/02/17 08:01:47;;;;;;;47.25;24.42;;;9.70;99.90;;;;;;4965659;28;20563;-63
2024/02/17 08:04:14;;;;;;;49.55;25.50;;;9.70;99.90;;;;;;4961684;28;20051;-63
2024/02/17 08:06:41;;;;;;;47.55;24.20;;;9.70;99.90;;;;;;4948181;28;20636;-63
2024/02/17 08:09:08;;;;;;;46.67;22.92;;;9.70;99.90;;;;;;4967611;28;20099;-63
2024/02/17 08:11:35;;;;;;;47.40;22.92;;;9.70;99.90;;;;;;4966956;28;20053;-63
2024/02/17 08:14:04;;;;;;;52.80;26.33;;;9.70;99.90;;;;;;4964544;28;20054;-62
2024/02/17 08:16:31;;;;;;;51.35;26.33;;;9.70;99.90;;;;;;4962876;28;20590;-63
2024/02/17 08:18:58;;;;;;;48.22;25.13;;;9.80;99.90;;;;;;4964261;28;20051;-62
2024/02/17 08:21:25;;;;;;;51.53;26.75;;;9.80;99.90;;;;;;4970348;28;20061;-63
2024/02/17 08:23:52;;;;;;;51.75;23.77;;;9.80;99.90;;;;;;4971712;28;20071;-62
2024/02/17 08:26:20;;;;;;;40.15;19.35;;;9.80;99.90;;;;;;4967554;28;20123;-63
2024/02/17 08:28:46;;;;;;;43.10;20.27;;;9.80;99.90;;;;;;4965570;28;20058;-63
2024/02/17 08:31:13;;;;;;;39.30;19.23;;;9.70;99.90;;;;;;4967593;28;20047;-63
2024/02/17 08:33:40;;;;;;;40.25;20.60;;;9.80;99.90;;;;;;4966843;28;20047;-62
2024/02/17 08:36:07;;;;;;;43.97;21.73;;;9.80;99.90;;;;;;4966484;28;20062;-62
2024/02/17 08:38:34;;;;;;;43.17;20.45;;;9.80;99.90;;;;;;4969528;28;20074;-62
2024/02/17 08:41:03;;;;;;;41.25;21.98;;;9.80;99.90;;;;;;4968976;28;20047;-63
2024/02/17 08:43:30;;;;;;;43.50;21.40;;;9.80;99.90;;;;;;4966648;28;20061;-63
2024/02/17 08:45:57;;;;;;;44.22;22.42;;;9.80;99.90;;;;;;4967042;28;20057;-62
2024/02/17 08:48:24;;;;;;;47.30;24.05;;;9.90;99.90;;;;;;4970616;28;20094;-62
2024/02/17 08:50:51;;;;;;;43.40;24.63;;;9.90;99.90;;;;;;4968175;28;20058;-62
2024/02/17 08:53:18;;;;;;;36.15;20.52;;;9.90;99.90;;;;;;4970386;28;20043;-62
2024/02/17 08:55:45;;;;;;;45.35;22.95;;;9.90;99.90;;;;;;4969737;28;20082;-63
2024/02/17 08:58:12;;;;;;;39.95;23.50;;;9.90;99.90;;;;;;4968994;28;20050;-63
2024/02/17 09:00:39;;;;;;;37.53;21.88;;;10.00;99.90;;;;;;4970032;28;20495;-63
2024/02/17 09:03:06;;;;;;;35.63;22.08;;;10.00;99.90;;;;;;4970640;28;20059;-63
2024/02/17 09:05:35;;;;;;;35.72;22.27;;;10.10;99.90;;;;;;4969569;28;20069;-63
2024/02/17 09:08:02;;;;;;;33.47;20.15;;;10.20;99.90;;;;;;4969565;28;20067;-63
2024/02/17 09:10:29;;;;;;;31.02;18.60;;;10.20;99.90;;;;;;4974161;28;20054;-63
2024/02/17 09:12:56;;;;;;;30.35;19.98;;;10.30;99.90;;;;;;4970999;28;20158;-63
2024/02/17 09:15:23;;;;;;;29.85;19.30;;;10.40;99.90;;;;;;4970228;28;20065;-63
2024/02/17 09:17:50;;;;;;;32.95;21.05;;;10.40;99.90;;;;;;4947558;28;20047;-63
2024/02/17 09:20:17;;;;;;;26.42;18.88;;;10.50;99.90;;;;;;4970101;28;20054;-63
2024/02/17 09:22:44;;;;;;;28.52;18.67;;;10.40;99.90;;;;;;4973728;28;20742;-63
2024/02/17 09:25:11;;;;;;;27.08;17.05;;;10.40;99.90;;;;;;4950640;28;20110;-63
2024/02/17 09:27:37;;;;;;;30.42;19.70;;;10.40;99.90;;;;;;4969208;28;20129;-63
2024/02/17 09:30:06;;;;;;;26.95;18.55;;;10.40;99.90;;;;;;4966144;28;20090;-63
2024/02/17 09:32:33;;;;;;;27.40;17.73;;;10.40;99.90;;;;;;4968404;28;20468;-63
2024/02/17 09:35:00;;;;;;;28.25;18.85;;;10.50;99.90;;;;;;4949344;28;20081;-63
2024/02/17 09:37:27;;;;;;;27.50;18.67;;;10.60;99.90;;;;;;4962749;28;20121;-63
2024/02/17 09:39:53;;;;;;;30.73;19.80;;;10.60;99.90;;;;;;4963672;28;20074;-63
2024/02/17 09:42:20;;;;;;;27.13;18.35;;;10.60;99.90;;;;;;4961762;28;20444;-63
2024/02/17 09:44:48;;;;;;;32.28;20.92;;;10.70;99.90;;;;;;4964654;28;20051;-63
2024/02/17 09:47:16;;;;;;;32.97;21.65;;;10.70;99.90;;;;;;4967682;28;20231;-63
2024/02/17 09:49:43;;;;;;;31.33;21.80;;;10.70;99.90;;;;;;4965785;28;20053;-63
2024/02/17 09:52:10;;;;;;;28.80;20.98;;;10.80;99.90;;;;;;4964544;28;20055;-63
2024/02/17 09:54:38;;;;;;;33.97;22.85;;;10.80;99.90;;;;;;4965376;28;20047;-63
2024/02/17 09:57:06;;;;;;;38.80;26.58;;;10.80;99.90;;;;;;4969085;28;20650;-62
2024/02/17 09:59:33;;;;;;;36.60;22.50;;;10.80;99.90;;;;;;4970037;28;20038;-62
2024/02/17 10:01:59;;;;;;;31.15;22.02;;;10.90;99.90;;;;;;4970967;28;20042;-63
2024/02/17 10:04:26;;;;;;;38.15;21.40;;;11.00;99.90;;;;;;4965941;28;20130;-63
2024/02/17 10:07:01;;;;;;;32.70;20.15;;;11.00;99.90;;;;;;4962712;28;20693;-62
2024/02/17 10:09:28;;;;;;;30.35;20.83;;;11.00;99.90;;;;;;4963716;28;20046;-65
2024/02/17 10:11:58;;;;;;;31.10;21.63;;;11.00;99.90;;;;;;4963076;28;20046;-62
2024/02/17 10:14:27;;;;;;;29.17;20.17;;;10.90;99.90;;;;;;4963134;28;20594;-63
2024/02/17 10:16:58;;;;;;;31.08;22.20;;;10.90;99.90;;;;;;4967139;28;20488;-63
2024/02/17 10:19:25;;;;;;;33.13;20.65;;;10.90;99.90;;;;;;4964384;28;20047;-63
2024/02/17 10:21:54;;;;;;;26.45;20.58;;;10.90;99.90;;;;;;4963526;28;20038;-63
2024/02/17 10:24:24;;;;;;;30.85;21.02;;;10.90;99.90;;;;;;4964363;28;20595;-62
2024/02/17 10:26:54;;;;;;;27.50;20.27;;;11.00;99.90;;;;;;4969515;28;20065;-63
2024/02/17 10:29:23;;;;;;;29.80;21.13;;;10.90;99.90;;;;;;4964340;28;20051;-61
2024/02/17 10:31:50;;;;;;;29.42;21.98;;;11.00;99.90;;;;;;4965248;28;20427;-67
2024/02/17 10:34:17;;;;;;;30.42;21.13;;;11.20;99.90;;;;;;4963966;28;20051;-63
2024/02/17 10:36:45;;;;;;;29.58;20.70;;;11.30;99.90;;;;;;4967290;28;20130;-63
2024/02/17 10:39:12;;;;;;;28.40;20.90;;;11.30;99.90;;;;;;4965843;28;20053;-63
2024/02/17 10:41:39;;;;;;;32.83;20.33;;;11.40;99.90;;;;;;4965463;28;20089;-62
2024/02/17 10:44:06;;;;;;;29.95;19.98;;;11.40;99.90;;;;;;4964256;28;20624;-62
2024/02/17 10:46:36;;;;;;;26.98;21.10;;;11.50;99.90;;;;;;4967175;28;20403;-61
2024/02/17 10:49:40;;;;;;;29.05;22.05;;;11.70;99.90;;;;;;4964220;28;20118;-63
2024/02/17 10:52:10;;;;;;;26.02;20.25;;;11.80;99.90;;;;;;4889970;29;20601;-63
2024/02/17 10:54:54;;;;;;;27.05;19.70;;;11.90;99.90;;;;;;4954062;28;20463;-63
2024/02/17 10:57:25;;;;;;;27.50;20.20;;;12.00;99.90;;;;;;4967410;28;20074;-63
2024/02/17 10:59:58;;;;;;;23.83;18.75;;;12.10;99.90;;;;;;4968762;28;20478;-63
2024/02/17 11:02:27;;;;;;;24.35;19.50;;;12.10;99.90;;;;;;4968659;28;20054;-62
2024/02/17 11:04:55;;;;;;;29.08;19.95;;;12.00;99.90;;;;;;4968145;28;20095;-63
2024/02/17 11:07:22;;;;;;;32.70;21.05;;;12.20;99.90;;;;;;4968683;28;20061;-62
2024/02/17 11:09:50;;;;;;;26.73;20.15;;;12.40;99.90;;;;;;4969764;28;20054;-62
2024/02/17 11:12:28;;;;;;;26.05;18.70;;;12.30;99.90;;;;;;4968489;28;20042;-62
2024/02/17 11:15:11;;;;;;;25.77;19.70;;;12.00;99.90;;;;;;4966882;28;20146;-62
2024/02/17 11:17:50;;;;;;;27.60;20.40;;;11.90;99.90;;;;;;4961257;28;20741;-62
2024/02/17 11:20:19;;;;;;;26.23;19.70;;;11.80;99.90;;;;;;4959063;28;20053;-62
2024/02/17 11:23:01;;;;;;;26.52;18.05;;;11.70;99.90;;;;;;4962592;28;20047;-62
2024/02/17 11:25:31;;;;;;;26.48;18.77;;;11.70;99.90;;;;;;4966720;28;20051;-61
2024/02/17 11:27:59;;;;;;;26.67;19.55;;;11.70;99.90;;;;;;4963893;28;20051;-63
2024/02/17 11:30:26;;;;;;;27.13;18.95;;;11.80;99.90;;;;;;4961670;28;20729;-62
2024/02/17 11:32:57;;;;;;;25.98;18.90;;;11.90;99.90;;;;;;4960865;28;20094;-63
2024/02/17 11:35:27;;;;;;;24.45;17.73;;;12.00;99.90;;;;;;4960247;28;20064;-62
2024/02/17 11:37:56;;;;;;;22.67;17.23;;;12.10;99.90;;;;;;4962754;28;20047;-62
2024/02/17 11:40:27;;;;;;;28.48;19.08;;;12.10;99.90;;;;;;4959055;28;20046;-62
2024/02/17 11:42:56;;;;;;;24.40;16.55;;;12.20;99.90;;;;;;4960303;28;20062;-62
2024/02/17 11:45:25;;;;;;;23.08;17.15;;;12.30;99.90;;;;;;4961759;28;20062;-62
2024/02/17 11:47:52;;;;;;;21.55;16.27;;;12.40;99.90;;;;;;4961978;28;20050;-62
2024/02/17 11:50:19;;;;;;;20.05;14.25;;;12.40;99.90;;;;;;4968097;28;20519;-62
2024/02/17 11:52:46;;;;;;;20.83;16.40;;;12.10;99.90;;;;;;4969375;28;20046;-62
2024/02/17 11:55:13;;;;;;;20.80;16.42;;;12.10;99.90;;;;;;4968263;28;20050;-62
2024/02/17 11:57:41;;;;;;;22.02;16.75;;;12.40;99.90;;;;;;4966389;28;20086;-63
2024/02/17 12:00:11;;;;;;;23.15;17.27;;;12.30;99.90;;;;;;4962819;28;20054;-60
2024/02/17 12:02:41;;;;;;;23.23;17.42;;;12.50;99.90;;;;;;4964026;28;20382;-62
2024/02/17 12:05:08;;;;;;;23.13;16.55;;;12.90;99.90;;;;;;4964566;28;20277;-63
2024/02/17 12:07:35;;;;;;;23.80;16.90;;;12.90;99.90;;;;;;4964184;28;20047;-63
2024/02/17 12:10:02;;;;;;;19.67;15.35;;;12.70;99.90;;;;;;4964255;28;20110;-62
2024/02/17 12:12:31;;;;;;;24.35;15.23;;;12.60;99.90;;;;;;4965125;28;20546;-63
2024/02/17 12:14:58;;;;;;;20.20;16.40;;;12.60;99.90;;;;;;4967385;28;20047;-63
2024/02/17 12:17:28;;;;;;;21.58;15.38;;;13.00;99.90;;;;;;4963821;28;21927;-63
2024/02/17 12:19:55;;;;;;;19.75;15.57;;;13.10;99.90;;;;;;4967092;28;20101;-62
2024/02/17 12:22:22;;;;;;;19.23;14.25;;;13.30;99.90;;;;;;4965014;28;20074;-62
2024/02/17 12:24:49;;;;;;;19.45;14.77;;;13.40;99.90;;;;;;4970556;28;20054;-62
2024/02/17 12:27:17;;;;;;;18.48;14.25;;;13.30;99.90;;;;;;4962469;28;20047;-62
2024/02/17 12:29:50;;;;;;;17.77;13.05;;;13.20;99.90;;;;;;4958554;28;20042;-63
2024/02/17 12:32:20;;;;;;;15.68;12.25;;;13.10;99.90;;;;;;4959310;28;20043;-62
2024/02/17 12:34:47;;;;;;;18.60;11.90;;;13.00;99.90;;;;;;4964227;28;20138;-62
2024/02/17 12:37:17;;;;;;;15.50;13.20;;;12.90;99.90;;;;;;4965788;28;20047;-62
2024/02/17 12:39:45;;;;;;;30.33;15.50;;;12.90;99.90;;;;;;4962416;28;20080;-62
2024/02/17 12:42:13;;;;;;;18.98;14.48;;;12.80;99.90;;;;;;4960419;28;20415;-63